sensor_id;sensor_type;location;lat;lon;timestamp;P1;durP1;ratioP1;P2;durP2;ratioP2
74577;SDS011;63173;49.086;33.418;2022-12-17T00:03:31;59.70;;;10.18;;
74577;SDS011;63173;49.086;33.418;2022-12-17T00:07:14;62.75;;;9.85;;
74577;SDS011;63173;49.086;33.418;2022-12-17T00:10:57;74.97;;;10.73;;
74577;SDS011;63173;49.086;33.418;2022-12-17T00:14:39;83.38;;;12.32;;
74577;SDS011;63173;49.086;33.418;2022-12-17T00:17:24;63.47;;;10.52;;
74577;SDS011;63173;49.086;33.418;2022-12-17T00:20:14;74.20;;;11.18;;
74577;SDS011;63173;49.086;33.418;2022-12-17T00:23:02;83.35;;;11.98;;
74577;SDS011;63173;49.086;33.418;2022-12-17T00:25:51;70.88;;;11.07;;
74577;SDS011;63173;49.086;33.418;2022-12-17T00:28:36;66.70;;;9.93;;
74577;SDS011;63173;49.086;33.418;2022-12-17T00:31:20;67.72;;;9.27;;
74577;SDS011;63173;49.086;33.418;2022-12-17T00:34:04;65.25;;;10.70;;
74577;SDS011;63173;49.086;33.418;2022-12-17T00:36:49;71.15;;;9.68;;
74577;SDS011;63173;49.086;33.418;2022-12-17T00:39:33;92.88;;;10.82;;
74577;SDS011;63173;49.086;33.418;2022-12-17T00:42:17;142.13;;;12.80;;
74577;SDS011;63173;49.086;33.418;2022-12-17T00:45:01;148.95;;;11.98;;
74577;SDS011;63173;49.086;33.418;2022-12-17T00:47:46;116.47;;;10.63;;
74577;SDS011;63173;49.086;33.418;2022-12-17T00:50:31;249.70;;;13.55;;
74577;SDS011;63173;49.086;33.418;2022-12-17T00:53:15;87.90;;;9.68;;
74577;SDS011;63173;49.086;33.418;2022-12-17T00:56:00;163.07;;;11.98;;
74577;SDS011;63173;49.086;33.418;2022-12-17T00:58:44;442.85;;;17.17;;
74577;SDS011;63173;49.086;33.418;2022-12-17T01:01:28;219.73;;;11.73;;
74577;SDS011;63173;49.086;33.418;2022-12-17T03:42:18;357.27;;;22.70;;
74577;SDS011;63173;49.086;33.418;2022-12-17T03:46:01;39.92;;;13.00;;
74577;SDS011;63173;49.086;33.418;2022-12-17T03:48:45;112.28;;;14.45;;
74577;SDS011;63173;49.086;33.418;2022-12-17T03:51:28;334.25;;;23.50;;
74577;SDS011;63173;49.086;33.418;2022-12-17T03:54:16;79.70;;;16.33;;
74577;SDS011;63173;49.086;33.418;2022-12-17T03:57:59;74.68;;;12.07;;
74577;SDS011;63173;49.086;33.418;2022-12-17T04:01:41;321.13;;;16.58;;
74577;SDS011;63173;49.086;33.418;2022-12-17T04:05:24;328.98;;;17.15;;
74577;SDS011;63173;49.086;33.418;2022-12-17T04:08:08;317.73;;;17.15;;
74577;SDS011;63173;49.086;33.418;2022-12-17T04:11:51;317.67;;;16.02;;
74577;SDS011;63173;49.086;33.418;2022-12-17T04:15:11;208.25;;;13.63;;
74577;SDS011;63173;49.086;33.418;2022-12-17T04:18:53;219.65;;;13.30;;
74577;SDS011;63173;49.086;33.418;2022-12-17T04:22:36;330.73;;;16.65;;
74577;SDS011;63173;49.086;33.418;2022-12-17T04:26:13;323.40;;;17.38;;
74577;SDS011;63173;49.086;33.418;2022-12-17T04:29:56;46.45;;;11.10;;
74577;SDS011;63173;49.086;33.418;2022-12-17T04:33:39;302.90;;;15.98;;
74577;SDS011;63173;49.086;33.418;2022-12-17T04:37:21;286.83;;;16.30;;
74577;SDS011;63173;49.086;33.418;2022-12-17T04:41:04;59.05;;;10.57;;
74577;SDS011;63173;49.086;33.418;2022-12-17T04:44:46;451.70;;;20.77;;
74577;SDS011;63173;49.086;33.418;2022-12-17T04:48:31;140.32;;;12.35;;
74577;SDS011;63173;49.086;33.418;2022-12-17T04:51:18;293.30;;;17.70;;
74577;SDS011;63173;49.086;33.418;2022-12-17T04:55:01;101.50;;;10.52;;
74577;SDS011;63173;49.086;33.418;2022-12-17T04:58:45;120.47;;;12.15;;
74577;SDS011;63173;49.086;33.418;2022-12-17T05:02:28;141.20;;;11.55;;
74577;SDS011;63173;49.086;33.418;2022-12-17T05:05:12;450.92;;;18.33;;
74577;SDS011;63173;49.086;33.418;2022-12-17T05:07:56;399.35;;;18.65;;
74577;SDS011;63173;49.086;33.418;2022-12-17T05:10:40;192.10;;;13.90;;
74577;SDS011;63173;49.086;33.418;2022-12-17T05:13:25;150.35;;;11.32;;
74577;SDS011;63173;49.086;33.418;2022-12-17T05:16:09;261.55;;;13.60;;
74577;SDS011;63173;49.086;33.418;2022-12-17T05:18:53;198.13;;;15.00;;
74577;SDS011;63173;49.086;33.418;2022-12-17T05:21:37;169.82;;;12.35;;
74577;SDS011;63173;49.086;33.418;2022-12-17T05:24:21;155.93;;;11.52;;
74577;SDS011;63173;49.086;33.418;2022-12-17T05:27:05;249.05;;;16.63;;
74577;SDS011;63173;49.086;33.418;2022-12-17T05:29:49;407.33;;;21.23;;
74577;SDS011;63173;49.086;33.418;2022-12-17T05:32:33;120.28;;;13.48;;
74577;SDS011;63173;49.086;33.418;2022-12-17T05:35:17;194.35;;;16.30;;
74577;SDS011;63173;49.086;33.418;2022-12-17T05:38:05;238.93;;;18.48;;
74577;SDS011;63173;49.086;33.418;2022-12-17T05:40:50;385.27;;;22.88;;
74577;SDS011;63173;49.086;33.418;2022-12-17T05:43:35;81.22;;;14.75;;
74577;SDS011;63173;49.086;33.418;2022-12-17T05:46:19;208.50;;;19.50;;
74577;SDS011;63173;49.086;33.418;2022-12-17T05:49:03;138.90;;;18.42;;
74577;SDS011;63173;49.086;33.418;2022-12-17T05:51:50;138.82;;;15.48;;
74577;SDS011;63173;49.086;33.418;2022-12-17T05:54:34;120.38;;;15.27;;
74577;SDS011;63173;49.086;33.418;2022-12-17T05:57:18;363.00;;;28.92;;
74577;SDS011;63173;49.086;33.418;2022-12-17T06:00:02;135.98;;;16.75;;
74577;SDS011;63173;49.086;33.418;2022-12-17T06:02:47;173.32;;;17.25;;
74577;SDS011;63173;49.086;33.418;2022-12-17T06:05:31;227.75;;;20.10;;
74577;SDS011;63173;49.086;33.418;2022-12-17T06:09:01;381.77;;;26.60;;
74577;SDS011;63173;49.086;33.418;2022-12-17T06:11:45;547.85;;;33.67;;
74577;SDS011;63173;49.086;33.418;2022-12-17T06:14:29;253.50;;;22.15;;
74577;SDS011;63173;49.086;33.418;2022-12-17T06:17:12;200.73;;;20.25;;
74577;SDS011;63173;49.086;33.418;2022-12-17T06:19:57;231.32;;;19.52;;
74577;SDS011;63173;49.086;33.418;2022-12-17T06:22:41;265.63;;;21.23;;
74577;SDS011;63173;49.086;33.418;2022-12-17T06:25:25;124.40;;;16.38;;
74577;SDS011;63173;49.086;33.418;2022-12-17T06:28:09;220.70;;;18.02;;
74577;SDS011;63173;49.086;33.418;2022-12-17T06:30:54;130.00;;;16.23;;
74577;SDS011;63173;49.086;33.418;2022-12-17T06:33:38;117.32;;;15.65;;
74577;SDS011;63173;49.086;33.418;2022-12-17T06:36:22;75.07;;;12.85;;
74577;SDS011;63173;49.086;33.418;2022-12-17T06:39:59;140.38;;;15.32;;
74577;SDS011;63173;49.086;33.418;2022-12-17T06:42:53;140.32;;;19.55;;
74577;SDS011;63173;49.086;33.418;2022-12-17T06:48:21;77.78;;;14.40;;
74577;SDS011;63173;49.086;33.418;2022-12-17T06:51:05;92.85;;;15.13;;
74577;SDS011;63173;49.086;33.418;2022-12-17T06:53:49;90.72;;;15.68;;
74577;SDS011;63173;49.086;33.418;2022-12-17T06:56:34;153.70;;;19.42;;
74577;SDS011;63173;49.086;33.418;2022-12-17T06:59:18;129.68;;;19.00;;
74577;SDS011;63173;49.086;33.418;2022-12-17T07:02:02;103.57;;;19.10;;
74577;SDS011;63173;49.086;33.418;2022-12-17T07:04:46;135.23;;;20.00;;
74577;SDS011;63173;49.086;33.418;2022-12-17T07:07:30;135.70;;;19.13;;
74577;SDS011;63173;49.086;33.418;2022-12-17T07:10:14;94.82;;;16.55;;
74577;SDS011;63173;49.086;33.418;2022-12-17T07:13:07;91.38;;;17.33;;
74577;SDS011;63173;49.086;33.418;2022-12-17T07:15:51;151.32;;;22.17;;
74577;SDS011;63173;49.086;33.418;2022-12-17T07:18:36;129.75;;;18.17;;
74577;SDS011;63173;49.086;33.418;2022-12-17T07:21:20;91.57;;;17.88;;
74577;SDS011;63173;49.086;33.418;2022-12-17T07:24:08;134.50;;;21.13;;
74577;SDS011;63173;49.086;33.418;2022-12-17T07:26:51;123.07;;;22.50;;
74577;SDS011;63173;49.086;33.418;2022-12-17T07:29:36;89.80;;;18.27;;
74577;SDS011;63173;49.086;33.418;2022-12-17T07:32:20;77.57;;;17.23;;
74577;SDS011;63173;49.086;33.418;2022-12-17T07:35:04;90.85;;;17.65;;
74577;SDS011;63173;49.086;33.418;2022-12-17T07:37:49;81.07;;;16.80;;
74577;SDS011;63173;49.086;33.418;2022-12-17T07:40:39;191.45;;;49.47;;
74577;SDS011;63173;49.086;33.418;2022-12-17T07:43:24;73.65;;;14.45;;
74577;SDS011;63173;49.086;33.418;2022-12-17T07:46:07;133.63;;;17.42;;
74577;SDS011;63173;49.086;33.418;2022-12-17T07:48:51;109.13;;;16.85;;
74577;SDS011;63173;49.086;33.418;2022-12-17T07:51:35;131.32;;;17.85;;
74577;SDS011;63173;49.086;33.418;2022-12-17T07:54:19;174.98;;;20.33;;
74577;SDS011;63173;49.086;33.418;2022-12-17T07:57:03;72.13;;;14.82;;
74577;SDS011;63173;49.086;33.418;2022-12-17T08:00:01;165.23;;;16.17;;
74577;SDS011;63173;49.086;33.418;2022-12-17T10:14:49;509.65;;;34.33;;
74577;SDS011;63173;49.086;33.418;2022-12-17T10:17:33;143.05;;;23.85;;
74577;SDS011;63173;49.086;33.418;2022-12-17T10:23:01;323.63;;;27.88;;
74577;SDS011;63173;49.086;33.418;2022-12-17T10:25:54;245.07;;;25.23;;
74577;SDS011;63173;49.086;33.418;2022-12-17T10:28:39;417.00;;;31.40;;
74577;SDS011;63173;49.086;33.418;2022-12-17T10:31:25;305.73;;;26.42;;
74577;SDS011;63173;49.086;33.418;2022-12-17T10:34:27;140.98;;;22.02;;
74577;SDS011;63173;49.086;33.418;2022-12-17T10:37:17;145.93;;;23.27;;
74577;SDS011;63173;49.086;33.418;2022-12-17T10:40:01;446.10;;;36.53;;
74577;SDS011;63173;49.086;33.418;2022-12-17T10:42:47;156.13;;;23.48;;
74577;SDS011;63173;49.086;33.418;2022-12-17T10:45:33;165.40;;;22.13;;
74577;SDS011;63173;49.086;33.418;2022-12-17T10:51:04;194.07;;;24.58;;
74577;SDS011;63173;49.086;33.418;2022-12-17T10:53:49;374.13;;;31.33;;
74577;SDS011;63173;49.086;33.418;2022-12-17T10:56:34;151.82;;;23.92;;
74577;SDS011;63173;49.086;33.418;2022-12-17T10:59:28;131.50;;;27.38;;
74577;SDS011;63173;49.086;33.418;2022-12-17T11:02:19;151.32;;;28.65;;
74577;SDS011;63173;49.086;33.418;2022-12-17T11:05:04;143.30;;;24.77;;
74577;SDS011;63173;49.086;33.418;2022-12-17T11:07:54;137.40;;;28.05;;
74577;SDS011;63173;49.086;33.418;2022-12-17T11:10:39;160.95;;;32.97;;
74577;SDS011;63173;49.086;33.418;2022-12-17T11:13:30;163.73;;;30.52;;
74577;SDS011;63173;49.086;33.418;2022-12-17T11:21:51;250.93;;;45.70;;
74577;SDS011;63173;49.086;33.418;2022-12-17T11:24:48;188.48;;;34.75;;
74577;SDS011;63173;49.086;33.418;2022-12-17T11:27:35;179.02;;;32.78;;
74577;SDS011;63173;49.086;33.418;2022-12-17T11:30:25;178.80;;;34.50;;
74577;SDS011;63173;49.086;33.418;2022-12-17T11:36:21;161.95;;;31.83;;
74577;SDS011;63173;49.086;33.418;2022-12-17T11:39:20;182.60;;;41.65;;
74577;SDS011;63173;49.086;33.418;2022-12-17T11:45:09;138.13;;;31.00;;
74577;SDS011;63173;49.086;33.418;2022-12-17T11:48:02;141.00;;;29.70;;
74577;SDS011;63173;49.086;33.418;2022-12-17T11:50:50;157.02;;;31.77;;
74577;SDS011;63173;49.086;33.418;2022-12-17T11:53:42;155.55;;;31.85;;
74577;SDS011;63173;49.086;33.418;2022-12-17T11:56:37;166.45;;;33.72;;
74577;SDS011;63173;49.086;33.418;2022-12-17T12:02:24;165.38;;;35.47;;
74577;SDS011;63173;49.086;33.418;2022-12-17T12:05:18;174.85;;;36.38;;
74577;SDS011;63173;49.086;33.418;2022-12-17T12:11:03;164.15;;;34.10;;
74577;SDS011;63173;49.086;33.418;2022-12-17T12:16:44;160.68;;;33.83;;
74577;SDS011;63173;49.086;33.418;2022-12-17T12:22:37;151.90;;;35.40;;
74577;SDS011;63173;49.086;33.418;2022-12-17T12:25:32;139.40;;;32.35;;
74577;SDS011;63173;49.086;33.418;2022-12-17T12:28:25;143.32;;;33.40;;
74577;SDS011;63173;49.086;33.418;2022-12-17T12:34:06;156.35;;;37.10;;
74577;SDS011;63173;49.086;33.418;2022-12-17T12:36:51;130.88;;;31.80;;
74577;SDS011;63173;49.086;33.418;2022-12-17T12:39:44;136.52;;;32.97;;
74577;SDS011;63173;49.086;33.418;2022-12-17T12:53:42;101.78;;;27.83;;
74577;SDS011;63173;49.086;33.418;2022-12-17T12:56:33;103.35;;;29.42;;
74577;SDS011;63173;49.086;33.418;2022-12-17T12:59:23;87.75;;;26.20;;
74577;SDS011;63173;49.086;33.418;2022-12-17T13:02:12;76.13;;;26.52;;
74577;SDS011;63173;49.086;33.418;2022-12-17T13:04:56;78.35;;;25.13;;
74577;SDS011;63173;49.086;33.418;2022-12-17T13:07:40;64.50;;;23.58;;
74577;SDS011;63173;49.086;33.418;2022-12-17T13:10:15;65.60;;;24.10;;
74577;SDS011;63173;49.086;33.418;2022-12-17T13:12:44;62.85;;;22.48;;
74577;SDS011;63173;49.086;33.418;2022-12-17T13:18:26;64.78;;;23.77;;
74577;SDS011;63173;49.086;33.418;2022-12-17T13:20:30;63.03;;;22.92;;
74577;SDS011;63173;49.086;33.418;2022-12-17T13:23:04;63.58;;;22.25;;
74577;SDS011;63173;49.086;33.418;2022-12-17T13:25:29;62.53;;;22.63;;
74577;SDS011;63173;49.086;33.418;2022-12-17T13:27:55;59.70;;;21.50;;
74577;SDS011;63173;49.086;33.418;2022-12-17T13:30:35;61.20;;;22.53;;
74577;SDS011;63173;49.086;33.418;2022-12-17T13:40:47;65.75;;;25.38;;
74577;SDS011;63173;49.086;33.418;2022-12-17T13:43:20;68.63;;;24.40;;
74577;SDS011;63173;49.086;33.418;2022-12-17T13:45:45;73.93;;;26.88;;
74577;SDS011;63173;49.086;33.418;2022-12-17T13:48:21;64.32;;;24.77;;
74577;SDS011;63173;49.086;33.418;2022-12-17T13:50:57;65.30;;;25.98;;
74577;SDS011;63173;49.086;33.418;2022-12-17T13:53:24;64.68;;;24.20;;
74577;SDS011;63173;49.086;33.418;2022-12-17T13:55:50;84.32;;;28.42;;
74577;SDS011;63173;49.086;33.418;2022-12-17T13:58:23;73.57;;;27.48;;
74577;SDS011;63173;49.086;33.418;2022-12-17T14:00:49;70.45;;;25.05;;
74577;SDS011;63173;49.086;33.418;2022-12-17T14:03:21;67.57;;;24.73;;
74577;SDS011;63173;49.086;33.418;2022-12-17T16:10:37;56.67;;;23.98;;
74577;SDS011;63173;49.086;33.418;2022-12-17T16:13:03;56.03;;;24.98;;
74577;SDS011;63173;49.086;33.418;2022-12-17T16:15:28;57.88;;;26.42;;
74577;SDS011;63173;49.086;33.418;2022-12-17T16:17:54;53.03;;;22.75;;
74577;SDS011;63173;49.086;33.418;2022-12-17T16:20:20;62.17;;;26.48;;
74577;SDS011;63173;49.086;33.418;2022-12-17T16:22:45;58.03;;;25.55;;
74577;SDS011;63173;49.086;33.418;2022-12-17T16:25:11;56.83;;;24.58;;
74577;SDS011;63173;49.086;33.418;2022-12-17T16:27:36;62.50;;;26.55;;
74577;SDS011;63173;49.086;33.418;2022-12-17T16:30:02;65.80;;;26.17;;
74577;SDS011;63173;49.086;33.418;2022-12-17T16:32:28;52.03;;;24.83;;
74577;SDS011;63173;49.086;33.418;2022-12-17T16:34:53;50.95;;;22.33;;
74577;SDS011;63173;49.086;33.418;2022-12-17T16:37:18;56.90;;;24.27;;
74577;SDS011;63173;49.086;33.418;2022-12-17T16:39:44;51.97;;;20.60;;
74577;SDS011;63173;49.086;33.418;2022-12-17T16:42:09;59.40;;;24.05;;
74577;SDS011;63173;49.086;33.418;2022-12-17T16:44:35;49.13;;;22.27;;
74577;SDS011;63173;49.086;33.418;2022-12-17T16:47:01;59.50;;;26.48;;
74577;SDS011;63173;49.086;33.418;2022-12-17T16:49:27;54.72;;;22.67;;
74577;SDS011;63173;49.086;33.418;2022-12-17T16:51:52;52.55;;;20.48;;
74577;SDS011;63173;49.086;33.418;2022-12-17T16:54:19;44.45;;;21.55;;
74577;SDS011;63173;49.086;33.418;2022-12-17T16:56:45;53.05;;;22.75;;
74577;SDS011;63173;49.086;33.418;2022-12-17T16:59:10;49.88;;;23.17;;
74577;SDS011;63173;49.086;33.418;2022-12-17T17:01:37;46.25;;;19.73;;
74577;SDS011;63173;49.086;33.418;2022-12-17T17:04:03;53.97;;;22.77;;
74577;SDS011;63173;49.086;33.418;2022-12-17T17:06:29;48.63;;;21.70;;
74577;SDS011;63173;49.086;33.418;2022-12-17T17:08:54;48.22;;;19.00;;
74577;SDS011;63173;49.086;33.418;2022-12-17T17:11:22;49.53;;;21.43;;
74577;SDS011;63173;49.086;33.418;2022-12-17T17:13:49;53.78;;;19.67;;
74577;SDS011;63173;49.086;33.418;2022-12-17T17:16:15;37.20;;;17.42;;
74577;SDS011;63173;49.086;33.418;2022-12-17T17:18:41;35.70;;;14.68;;
74577;SDS011;63173;49.086;33.418;2022-12-17T17:23:47;41.28;;;16.73;;
74577;SDS011;63173;49.086;33.418;2022-12-17T17:26:13;42.33;;;19.40;;
74577;SDS011;63173;49.086;33.418;2022-12-17T17:28:38;33.65;;;14.93;;
74577;SDS011;63173;49.086;33.418;2022-12-17T17:31:04;31.33;;;15.03;;
74577;SDS011;63173;49.086;33.418;2022-12-17T17:33:31;44.45;;;17.95;;
74577;SDS011;63173;49.086;33.418;2022-12-17T17:36:14;37.85;;;16.90;;
74577;SDS011;63173;49.086;33.418;2022-12-17T17:38:40;32.35;;;14.25;;
74577;SDS011;63173;49.086;33.418;2022-12-17T17:41:06;30.10;;;13.40;;
74577;SDS011;63173;49.086;33.418;2022-12-17T17:43:32;38.47;;;17.52;;
74577;SDS011;63173;49.086;33.418;2022-12-17T17:46:04;35.37;;;17.13;;
74577;SDS011;63173;49.086;33.418;2022-12-17T17:48:30;35.50;;;15.23;;
74577;SDS011;63173;49.086;33.418;2022-12-17T17:51:01;32.22;;;13.82;;
74577;SDS011;63173;49.086;33.418;2022-12-17T17:53:27;37.65;;;16.48;;
74577;SDS011;63173;49.086;33.418;2022-12-17T17:55:52;35.47;;;15.90;;
74577;SDS011;63173;49.086;33.418;2022-12-17T17:58:17;45.13;;;17.37;;
74577;SDS011;63173;49.086;33.418;2022-12-17T18:00:43;35.00;;;16.27;;
74577;SDS011;63173;49.086;33.418;2022-12-17T18:03:08;30.30;;;14.50;;
74577;SDS011;63173;49.086;33.418;2022-12-17T18:05:37;36.60;;;14.93;;
74577;SDS011;63173;49.086;33.418;2022-12-17T18:08:02;36.13;;;16.15;;
74577;SDS011;63173;49.086;33.418;2022-12-17T18:10:27;33.28;;;17.02;;
74577;SDS011;63173;49.086;33.418;2022-12-17T18:12:53;35.47;;;15.73;;
74577;SDS011;63173;49.086;33.418;2022-12-17T18:15:36;33.03;;;15.10;;
74577;SDS011;63173;49.086;33.418;2022-12-17T18:18:02;33.67;;;15.07;;
74577;SDS011;63173;49.086;33.418;2022-12-17T18:20:27;34.93;;;15.13;;
74577;SDS011;63173;49.086;33.418;2022-12-17T18:22:52;44.50;;;18.07;;
74577;SDS011;63173;49.086;33.418;2022-12-17T18:25:17;42.50;;;18.60;;
74577;SDS011;63173;49.086;33.418;2022-12-17T18:27:43;35.33;;;16.48;;
74577;SDS011;63173;49.086;33.418;2022-12-17T18:30:08;38.35;;;16.80;;
74577;SDS011;63173;49.086;33.418;2022-12-17T18:32:34;32.42;;;15.60;;
74577;SDS011;63173;49.086;33.418;2022-12-17T18:34:59;34.63;;;16.52;;
74577;SDS011;63173;49.086;33.418;2022-12-17T18:37:24;35.97;;;16.20;;
74577;SDS011;63173;49.086;33.418;2022-12-17T18:39:50;37.43;;;15.87;;
74577;SDS011;63173;49.086;33.418;2022-12-17T18:42:15;30.43;;;14.33;;
74577;SDS011;63173;49.086;33.418;2022-12-17T18:44:58;35.42;;;14.15;;
74577;SDS011;63173;49.086;33.418;2022-12-17T18:47:24;35.50;;;16.63;;
74577;SDS011;63173;49.086;33.418;2022-12-17T18:49:49;37.37;;;17.27;;
74577;SDS011;63173;49.086;33.418;2022-12-17T18:52:14;34.17;;;14.23;;
74577;SDS011;63173;49.086;33.418;2022-12-17T18:54:40;33.47;;;15.63;;
74577;SDS011;63173;49.086;33.418;2022-12-17T18:57:05;34.63;;;14.23;;
74577;SDS011;63173;49.086;33.418;2022-12-17T18:59:30;32.83;;;15.60;;
74577;SDS011;63173;49.086;33.418;2022-12-17T19:01:56;29.92;;;14.88;;
74577;SDS011;63173;49.086;33.418;2022-12-17T19:04:21;38.13;;;16.95;;
74577;SDS011;63173;49.086;33.418;2022-12-17T19:06:47;34.95;;;15.23;;
74577;SDS011;63173;49.086;33.418;2022-12-17T19:09:21;32.90;;;16.05;;
74577;SDS011;63173;49.086;33.418;2022-12-17T19:11:47;34.08;;;14.38;;
74577;SDS011;63173;49.086;33.418;2022-12-17T19:14:13;40.42;;;17.52;;
74577;SDS011;63173;49.086;33.418;2022-12-17T19:16:38;31.73;;;14.80;;
74577;SDS011;63173;49.086;33.418;2022-12-17T19:19:04;35.33;;;17.87;;
74577;SDS011;63173;49.086;33.418;2022-12-17T19:21:30;31.27;;;14.68;;
74577;SDS011;63173;49.086;33.418;2022-12-17T19:23:59;32.83;;;14.32;;
74577;SDS011;63173;49.086;33.418;2022-12-17T19:26:25;35.70;;;15.77;;
74577;SDS011;63173;49.086;33.418;2022-12-17T19:28:51;30.38;;;14.50;;
74577;SDS011;63173;49.086;33.418;2022-12-17T19:31:17;34.08;;;15.63;;
74577;SDS011;63173;49.086;33.418;2022-12-17T19:33:46;33.25;;;13.90;;
74577;SDS011;63173;49.086;33.418;2022-12-17T19:36:12;32.75;;;15.65;;
74577;SDS011;63173;49.086;33.418;2022-12-17T19:38:38;27.33;;;12.98;;
74577;SDS011;63173;49.086;33.418;2022-12-17T19:41:04;26.17;;;12.73;;
74577;SDS011;63173;49.086;33.418;2022-12-17T19:43:30;32.45;;;15.65;;
74577;SDS011;63173;49.086;33.418;2022-12-17T19:46:05;32.80;;;13.10;;
74577;SDS011;63173;49.086;33.418;2022-12-17T19:48:32;39.08;;;15.65;;
74577;SDS011;63173;49.086;33.418;2022-12-17T19:50:57;29.88;;;15.27;;
74577;SDS011;63173;49.086;33.418;2022-12-17T19:53:23;24.17;;;11.32;;
74577;SDS011;63173;49.086;33.418;2022-12-17T19:55:51;33.20;;;15.82;;
74577;SDS011;63173;49.086;33.418;2022-12-17T19:58:16;29.63;;;14.32;;
74577;SDS011;63173;49.086;33.418;2022-12-17T20:00:41;32.40;;;14.27;;
74577;SDS011;63173;49.086;33.418;2022-12-17T22:37:51;22.40;;;10.90;;
74577;SDS011;63173;49.086;33.418;2022-12-17T22:40:17;34.35;;;13.52;;
74577;SDS011;63173;49.086;33.418;2022-12-17T22:42:45;30.73;;;11.68;;
74577;SDS011;63173;49.086;33.418;2022-12-17T22:45:30;28.40;;;11.40;;
74577;SDS011;63173;49.086;33.418;2022-12-17T22:47:55;33.10;;;12.50;;
74577;SDS011;63173;49.086;33.418;2022-12-17T22:50:21;22.88;;;9.52;;
74577;SDS011;63173;49.086;33.418;2022-12-17T22:52:46;26.02;;;11.20;;
74577;SDS011;63173;49.086;33.418;2022-12-17T22:55:12;19.65;;;8.05;;
74577;SDS011;63173;49.086;33.418;2022-12-17T22:57:37;23.55;;;8.43;;
74577;SDS011;63173;49.086;33.418;2022-12-17T23:00:05;19.48;;;8.18;;
74577;SDS011;63173;49.086;33.418;2022-12-17T23:02:34;21.77;;;8.68;;
74577;SDS011;63173;49.086;33.418;2022-12-17T23:04:59;16.88;;;7.10;;
74577;SDS011;63173;49.086;33.418;2022-12-17T23:07:24;14.82;;;7.05;;
74577;SDS011;63173;49.086;33.418;2022-12-17T23:09:50;14.45;;;6.72;;
74577;SDS011;63173;49.086;33.418;2022-12-17T23:12:18;15.00;;;6.32;;
74577;SDS011;63173;49.086;33.418;2022-12-17T23:15:02;13.50;;;5.55;;
74577;SDS011;63173;49.086;33.418;2022-12-17T23:17:28;13.20;;;6.43;;
74577;SDS011;63173;49.086;33.418;2022-12-17T23:19:53;16.08;;;6.60;;
74577;SDS011;63173;49.086;33.418;2022-12-17T23:22:18;14.13;;;6.60;;
74577;SDS011;63173;49.086;33.418;2022-12-17T23:24:44;16.58;;;7.57;;
74577;SDS011;63173;49.086;33.418;2022-12-17T23:27:09;13.70;;;6.90;;
74577;SDS011;63173;49.086;33.418;2022-12-17T23:29:35;14.45;;;6.55;;
74577;SDS011;63173;49.086;33.418;2022-12-17T23:32:00;15.10;;;6.18;;
74577;SDS011;63173;49.086;33.418;2022-12-17T23:34:26;16.63;;;6.78;;
74577;SDS011;63173;49.086;33.418;2022-12-17T23:36:52;18.88;;;7.18;;
74577;SDS011;63173;49.086;33.418;2022-12-17T23:39:17;15.98;;;6.43;;
74577;SDS011;63173;49.086;33.418;2022-12-17T23:41:43;13.23;;;5.72;;
74577;SDS011;63173;49.086;33.418;2022-12-17T23:44:08;11.82;;;5.28;;
74577;SDS011;63173;49.086;33.418;2022-12-17T23:46:34;10.18;;;5.38;;
74577;SDS011;63173;49.086;33.418;2022-12-17T23:48:59;6.30;;;3.38;;
74577;SDS011;63173;49.086;33.418;2022-12-17T23:51:28;4.45;;;2.65;;
74577;SDS011;63173;49.086;33.418;2022-12-17T23:53:54;4.75;;;2.55;;
74577;SDS011;63173;49.086;33.418;2022-12-17T23:56:21;3.72;;;2.00;;
74577;SDS011;63173;49.086;33.418;2022-12-17T23:58:50;3.13;;;1.85;;
